createdAt,value
2022-10-28T00:01:30.590Z,101354.44
2022-10-28T00:04:02.316Z,101356.28
2022-10-28T00:06:34.915Z,101347.53
2022-10-28T00:09:06.918Z,101343.09
2022-10-28T00:11:37.906Z,101359.09
2022-10-28T00:14:08.580Z,101364.34
2022-10-28T00:16:38.639Z,101365.22
2022-10-28T00:19:12.173Z,101375.72
2022-10-28T00:21:43.136Z,101373.91
2022-10-28T00:24:13.343Z,101379.09
2022-10-28T00:26:44.097Z,101377.22
2022-10-28T00:29:15.945Z,101378.91
2022-10-28T00:31:44.668Z,101378.75
2022-10-28T00:34:17.425Z,101367.22
2022-10-28T00:36:47.383Z,101364.50
2022-10-28T00:39:18.153Z,101362.56
2022-10-28T00:41:49.989Z,101362.53
2022-10-28T00:44:58.984Z,101362.47
2022-10-28T00:47:52.300Z,101367.75
2022-10-28T00:50:44.879Z,101372.13
2022-10-28T00:53:19.747Z,101362.38
2022-10-28T00:55:48.727Z,101354.53
2022-10-28T00:58:18.672Z,101340.41
2022-10-28T01:00:47.503Z,101339.53
2022-10-28T01:03:17.335Z,101338.63
2022-10-28T01:05:50.816Z,101340.47
2022-10-28T01:08:19.857Z,101346.63
2022-10-28T01:11:41.261Z,101350.09
2022-10-28T01:14:28.991Z,101351.81
2022-10-28T01:17:22.812Z,101346.53
2022-10-28T01:21:01.881Z,101349.25
2022-10-28T01:23:37.442Z,101348.28
2022-10-28T01:26:30.563Z,101353.56
2022-10-28T01:29:50.447Z,101364.13
2022-10-28T01:32:32.024Z,101349.09
2022-10-28T01:35:13.320Z,101344.66
2022-10-28T01:37:50.464Z,101358.72
2022-10-28T01:40:30.582Z,101352.47
2022-10-28T01:43:09.930Z,101351.50
2022-10-28T01:45:47.541Z,101340.03
2022-10-28T01:48:22.374Z,101341.75
2022-10-28T01:50:55.895Z,101347.09
2022-10-28T01:53:29.994Z,101340.94
2022-10-28T01:56:04.795Z,101339.13
2022-10-28T01:58:34.956Z,101332.88
2022-10-28T02:01:07.417Z,101331.06
2022-10-28T02:03:37.446Z,101324.91
2022-10-28T02:06:08.197Z,101330.19
2022-10-28T02:08:55.159Z,101331.06
2022-10-28T02:12:10.461Z,101342.50
2022-10-28T02:17:56.433Z,101327.50
2022-10-28T02:20:39.401Z,101319.53
2022-10-28T02:23:22.882Z,101323.00
2022-10-28T02:25:57.801Z,101315.88
2022-10-28T02:28:38.552Z,101319.38
2022-10-28T02:31:12.206Z,101309.69
2022-10-28T02:33:42.711Z,101306.16
2022-10-28T02:36:16.171Z,101309.66
2022-10-28T02:38:48.859Z,101299.88
2022-10-28T02:41:23.440Z,101300.81
2022-10-28T02:43:56.882Z,101292.94
2022-10-28T02:46:28.923Z,101295.63
2022-10-28T02:49:02.361Z,101296.56
2022-10-28T02:51:38.028Z,101293.19
2022-10-28T02:54:10.284Z,101288.81
2022-10-28T02:56:43.010Z,101280.91
2022-10-28T02:59:12.996Z,101280.84
2022-10-28T03:01:41.666Z,101280.84
2022-10-28T03:04:10.388Z,101267.69
2022-10-28T03:06:39.936Z,101264.13
2022-10-28T03:09:08.198Z,101264.13
2022-10-28T03:11:36.679Z,101258.00
2022-10-28T03:14:05.137Z,101255.34
2022-10-28T03:16:33.452Z,101258.84
2022-10-28T03:19:01.807Z,101260.56
2022-10-28T03:21:30.301Z,101258.84
2022-10-28T03:23:59.830Z,101257.16
2022-10-28T03:26:28.025Z,101250.09
2022-10-28T03:28:56.210Z,101256.25
2022-10-28T03:31:24.686Z,101250.97
2022-10-28T03:33:53.311Z,101257.22
2022-10-28T03:36:21.501Z,101255.44
2022-10-28T03:38:50.068Z,101261.53
2022-10-28T03:41:19.687Z,101265.91
2022-10-28T03:43:48.182Z,101258.88
2022-10-28T03:46:16.686Z,101256.25
2022-10-28T03:48:44.929Z,101266.81
2022-10-28T03:51:13.555Z,101272.19
2022-10-28T03:53:42.046Z,101282.84
2022-10-28T03:56:12.057Z,101277.66
2022-10-28T03:58:41.627Z,101279.50
2022-10-28T04:01:09.935Z,101275.06
2022-10-28T04:03:38.611Z,101271.50
2022-10-28T04:06:07.323Z,101267.09
2022-10-28T04:08:35.819Z,101260.84
2022-10-28T04:11:04.281Z,101266.09
2022-10-28T04:13:32.540Z,101265.19
2022-10-28T04:16:02.457Z,101261.59
2022-10-28T04:18:31.868Z,101261.53
2022-10-28T04:21:00.459Z,101259.78
2022-10-28T04:23:29.199Z,101262.34
2022-10-28T04:25:58.061Z,101251.78
2022-10-28T04:28:26.550Z,101260.56
2022-10-28T04:30:54.727Z,101257.94
2022-10-28T04:33:24.268Z,101258.78
2022-10-28T04:35:52.791Z,101274.63
2022-10-28T04:38:21.311Z,101274.63
2022-10-28T04:40:50.020Z,101287.81
2022-10-28T04:43:18.584Z,101292.25
2022-10-28T04:45:47.722Z,101299.31
2022-10-28T04:48:16.092Z,101310.81
2022-10-28T04:50:46.030Z,101306.41
2022-10-28T04:53:14.592Z,101299.47
2022-10-28T04:55:43.305Z,101298.66
2022-10-28T04:58:11.750Z,101284.69
2022-10-28T05:00:39.923Z,101289.09
2022-10-28T05:03:08.286Z,101294.41
2022-10-28T05:05:36.761Z,101301.50
2022-10-28T05:08:07.003Z,101285.72
2022-10-28T05:10:35.249Z,101285.72
2022-10-28T05:13:03.427Z,101281.38
2022-10-28T05:15:32.272Z,101275.16
2022-10-28T05:18:00.654Z,101268.16
2022-10-28T05:20:28.967Z,101264.69
2022-10-28T05:22:57.805Z,101266.47
2022-10-28T05:25:28.080Z,101260.34
2022-10-28T05:28:00.781Z,101256.88
2022-10-28T05:30:29.552Z,101256.97
2022-10-28T05:33:02.461Z,101255.34
2022-10-28T05:35:31.536Z,101257.25
2022-10-28T05:37:59.776Z,101253.03
2022-10-28T05:40:29.335Z,101266.38
2022-10-28T05:42:57.879Z,101261.28
2022-10-28T05:45:26.149Z,101255.19
2022-10-28T05:47:55.152Z,101253.50
2022-10-28T05:50:23.768Z,101251.00
2022-10-28T05:52:54.457Z,101239.63
2022-10-28T05:55:27.380Z,101249.34
2022-10-28T05:57:57.984Z,101251.13
2022-10-28T06:00:28.534Z,101245.91
2022-10-28T06:03:06.783Z,101251.19
2022-10-28T06:05:34.995Z,101257.34
2022-10-28T06:08:04.873Z,101251.19
2022-10-28T06:10:33.402Z,101255.47
2022-10-28T06:13:01.510Z,101265.09
2022-10-28T06:15:29.748Z,101251.91
2022-10-28T06:17:57.932Z,101246.63
2022-10-28T06:20:26.251Z,101251.00
2022-10-28T06:22:56.140Z,101256.19
2022-10-28T06:25:26.839Z,101253.47
2022-10-28T06:27:56.380Z,101257.78
2022-10-28T06:30:27.123Z,101261.13
2022-10-28T06:32:57.062Z,101266.28
2022-10-28T06:35:25.321Z,101271.47
2022-10-28T06:37:54.993Z,101266.09
2022-10-28T06:40:24.946Z,101266.97
2022-10-28T06:42:58.209Z,101262.53
2022-10-28T06:45:28.395Z,101269.56
2022-10-28T06:47:58.984Z,101279.22
2022-10-28T06:50:27.668Z,101270.38
2022-10-28T06:52:57.786Z,101275.56
2022-10-28T06:55:26.668Z,101272.03
2022-10-28T06:57:55.872Z,101265.81
2022-10-28T07:00:24.871Z,101271.84
2022-10-28T07:02:55.692Z,101268.19
2022-10-28T07:05:26.435Z,101261.97
2022-10-28T07:07:55.380Z,101274.22
2022-10-28T07:10:24.436Z,101275.84
2022-10-28T07:12:54.559Z,101281.03
2022-10-28T07:15:24.778Z,101284.50
2022-10-28T07:17:59.608Z,101282.63
2022-10-28T07:20:29.410Z,101284.41
2022-10-28T07:22:58.170Z,101291.34
2022-10-28T07:25:26.606Z,101296.47
2022-10-28T07:27:55.880Z,101288.47
2022-10-28T07:30:24.463Z,101298.94
2022-10-28T07:32:53.772Z,101302.44
2022-10-28T07:35:23.726Z,101300.69
2022-10-28T07:37:52.221Z,101295.41
2022-10-28T07:40:21.892Z,101291.75
2022-10-28T07:42:50.157Z,101286.44
2022-10-28T07:45:18.998Z,101298.69
2022-10-28T07:47:47.303Z,101301.16
2022-10-28T07:50:15.530Z,101289.56
2022-10-28T07:52:45.092Z,101289.34
2022-10-28T07:55:14.085Z,101306.75
2022-10-28T07:57:42.663Z,101314.41
2022-10-28T08:00:11.791Z,101323.88
2022-10-28T08:02:40.712Z,101314.09
2022-10-28T08:05:09.638Z,101308.72
2022-10-28T08:07:38.920Z,101303.31
2022-10-28T08:10:09.946Z,101305.84
2022-10-28T08:12:38.180Z,101299.56
2022-10-28T08:15:09.515Z,101300.31
2022-10-28T08:17:37.833Z,101304.66
2022-10-28T08:20:07.426Z,101307.06
2022-10-28T08:22:36.014Z,101306.78
2022-10-28T08:25:04.334Z,101301.31
2022-10-28T08:27:33.887Z,101315.88
2022-10-28T08:30:02.093Z,101303.25
2022-10-28T08:32:30.643Z,101311.78
2022-10-28T08:34:58.855Z,101303.56
2022-10-28T08:37:27.214Z,101305.00
2022-10-28T08:39:55.773Z,101306.53
2022-10-28T08:42:38.214Z,101303.75
2022-10-28T08:45:21.188Z,101301.66
2022-10-28T08:48:05.442Z,101292.47
2022-10-28T08:50:40.310Z,101295.56
2022-10-28T08:53:17.928Z,101293.53
2022-10-28T08:55:49.615Z,101302.09
2022-10-28T08:58:25.650Z,101298.19
2022-10-28T09:00:56.257Z,101301.34
2022-10-28T09:03:27.132Z,101295.69
2022-10-28T09:06:02.373Z,101307.69
2022-10-28T09:08:36.763Z,101299.50
2022-10-28T09:11:47.986Z,101300.22
2022-10-28T09:14:42.975Z,101301.88
2022-10-28T09:17:20.142Z,101304.56
2022-10-28T09:19:51.699Z,101306.50
2022-10-28T09:22:25.780Z,101296.84
2022-10-28T09:24:57.498Z,101292.44
2022-10-28T09:27:49.730Z,101291.72
2022-10-28T09:30:36.037Z,101295.34
2022-10-28T09:33:38.123Z,101297.78
2022-10-28T09:36:11.985Z,101290.00
2022-10-28T09:38:41.031Z,101289.09
2022-10-28T09:41:16.270Z,101290.91
2022-10-28T09:43:51.716Z,101277.16
2022-10-28T09:46:23.151Z,101281.69
2022-10-28T09:48:57.179Z,101283.75
2022-10-28T09:51:36.814Z,101281.53
2022-10-28T09:54:05.385Z,101284.84
2022-10-28T09:56:33.569Z,101291.22
2022-10-28T09:59:03.995Z,101291.41
2022-10-28T10:01:36.947Z,101301.72
2022-10-28T10:04:19.228Z,101300.66
2022-10-28T10:06:51.784Z,101299.63
2022-10-28T10:09:25.806Z,101295.47
2022-10-28T10:11:57.397Z,101290.44
2022-10-28T10:14:31.317Z,101289.84
2022-10-28T10:17:06.312Z,101287.66
2022-10-28T10:20:00.804Z,101288.66
2022-10-28T10:22:36.171Z,101281.22
2022-10-28T10:25:05.827Z,101287.88
2022-10-28T10:27:34.463Z,101285.53
2022-10-28T10:30:02.938Z,101283.03
2022-10-28T10:32:34.035Z,101285.91
2022-10-28T10:35:07.022Z,101288.22
2022-10-28T10:37:37.162Z,101274.19
2022-10-28T10:40:22.047Z,101268.66
2022-10-28T10:43:09.815Z,101271.72
2022-10-28T10:45:39.195Z,101274.56
2022-10-28T10:48:18.319Z,101268.25
2022-10-28T10:50:49.636Z,101263.44
2022-10-28T10:53:25.220Z,101263.13
2022-10-28T10:55:58.430Z,101257.19
2022-10-28T10:58:31.892Z,101253.88
2022-10-28T11:01:03.638Z,101258.94
2022-10-28T11:03:38.291Z,101255.88
2022-10-28T11:06:24.815Z,101259.31
2022-10-28T11:09:00.591Z,101264.06
2022-10-28T11:11:38.316Z,101242.19
2022-10-28T11:14:19.157Z,101227.91
2022-10-28T11:16:52.016Z,101233.97
2022-10-28T11:19:24.837Z,101241.34
2022-10-28T11:22:20.699Z,101228.84
2022-10-28T11:25:20.100Z,101230.44
2022-10-28T11:28:04.459Z,101231.88
2022-10-28T11:30:48.581Z,101221.78
2022-10-28T11:33:35.937Z,101224.91
2022-10-28T11:36:16.165Z,101227.16
2022-10-28T11:39:06.920Z,101216.38
2022-10-28T11:41:52.578Z,101206.81
2022-10-28T11:44:35.718Z,101216.59
2022-10-28T11:47:22.256Z,101209.75
2022-10-28T11:50:30.718Z,101196.28
2022-10-28T11:53:42.146Z,101201.03
2022-10-28T11:56:25.446Z,101208.53
2022-10-28T11:59:09.670Z,101202.88
2022-10-28T12:01:51.584Z,101198.22
2022-10-28T12:04:53.808Z,101184.28
2022-10-28T12:07:55.241Z,101180.44
2022-10-28T12:10:46.785Z,101163.22
2022-10-28T12:13:27.322Z,101175.31
2022-10-28T12:16:02.742Z,101178.09
2022-10-28T12:18:39.331Z,101157.78
2022-10-28T12:21:17.842Z,101168.66
2022-10-28T12:23:47.569Z,101161.66
2022-10-28T12:26:21.830Z,101154.69
2022-10-28T12:28:54.807Z,101167.16
2022-10-28T12:31:27.914Z,101172.03
2022-10-28T12:33:59.993Z,101163.69
2022-10-28T12:36:35.903Z,101154.25
2022-10-28T12:39:12.827Z,101138.16
2022-10-28T12:41:53.722Z,101147.50
2022-10-28T12:44:24.427Z,101141.72
2022-10-28T12:47:06.354Z,101138.91
2022-10-28T12:49:47.286Z,101157.72
2022-10-28T12:52:31.945Z,101143.50
2022-10-28T12:55:08.862Z,101133.44
2022-10-28T12:57:40.821Z,101124.41
2022-10-28T13:00:21.220Z,101132.53
2022-10-28T13:02:56.655Z,101125.06
2022-10-28T13:05:30.222Z,101122.50
2022-10-28T13:08:43.010Z,101124.19
2022-10-28T13:11:55.211Z,101126.56
2022-10-28T13:17:52.632Z,101132.28
2022-10-28T13:20:38.282Z,101116.25
2022-10-28T13:23:21.422Z,101127.53
2022-10-28T13:26:00.707Z,101122.63
2022-10-28T13:28:34.767Z,101124.25
2022-10-28T13:31:08.417Z,101128.59
2022-10-28T13:33:39.076Z,101136.59
2022-10-28T13:36:20.109Z,101131.00
2022-10-28T13:38:59.627Z,101133.56
2022-10-28T13:41:43.320Z,101131.38
2022-10-28T13:44:29.490Z,101132.34
2022-10-28T13:47:31.164Z,101124.63
2022-10-28T13:50:35.407Z,101125.13
2022-10-28T13:53:55.327Z,101121.28
2022-10-28T13:56:47.604Z,101126.00
2022-10-28T13:59:30.987Z,101113.16
2022-10-28T14:02:34.625Z,101126.38
2022-10-28T14:05:08.398Z,101122.72
2022-10-28T14:07:41.572Z,101126.25
2022-10-28T14:10:24.525Z,101130.63
2022-10-28T14:12:56.728Z,101144.50
2022-10-28T14:15:30.526Z,101142.66
2022-10-28T14:18:15.778Z,101153.28
2022-10-28T14:21:01.561Z,101151.38
2022-10-28T14:24:09.339Z,101158.66
2022-10-28T14:27:41.439Z,101150.53
2022-10-28T14:30:22.668Z,101153.63
2022-10-28T14:33:27.277Z,101155.44
2022-10-28T14:36:16.387Z,101143.41
2022-10-28T14:39:32.557Z,101141.97
2022-10-28T14:42:23.060Z,101141.47
2022-10-28T14:45:12.235Z,101140.00
2022-10-28T14:48:13.606Z,101140.22
2022-10-28T14:50:46.957Z,101137.63
2022-10-28T14:53:25.231Z,101145.78
2022-10-28T14:56:01.153Z,101140.53
2022-10-28T14:58:36.174Z,101141.50
2022-10-28T15:01:27.846Z,101138.38
2022-10-28T15:04:02.279Z,101137.84
2022-10-28T15:06:37.205Z,101143.78
2022-10-28T15:09:19.095Z,101143.47
2022-10-28T15:11:50.890Z,101143.03
2022-10-28T15:14:36.656Z,101141.94
2022-10-28T15:17:17.754Z,101147.94
2022-10-28T15:19:48.496Z,101146.88
2022-10-28T15:22:21.555Z,101146.66
2022-10-28T15:25:00.882Z,101148.34
2022-10-28T15:27:31.509Z,101141.78
2022-10-28T15:30:00.267Z,101150.44
2022-10-28T15:32:32.195Z,101149.13
2022-10-28T15:35:21.050Z,101146.97
2022-10-28T15:37:49.464Z,101151.00
2022-10-28T15:40:27.821Z,101152.25
2022-10-28T15:43:01.059Z,101153.50
2022-10-28T15:45:31.017Z,101145.91
2022-10-28T15:48:01.357Z,101155.94
2022-10-28T15:50:32.917Z,101150.91
2022-10-28T15:53:34.109Z,101152.34
2022-10-28T15:56:26.648Z,101157.03
2022-10-28T15:59:11.849Z,101158.28
2022-10-28T16:01:40.892Z,101153.41
2022-10-28T16:04:43.177Z,101164.50
2022-10-28T16:07:12.027Z,101170.16
2022-10-28T16:09:47.048Z,101162.41
2022-10-28T16:12:20.316Z,101167.19
2022-10-28T16:14:54.673Z,101163.97
2022-10-28T16:17:26.873Z,101174.06
2022-10-28T16:19:58.575Z,101175.31
2022-10-28T16:22:30.034Z,101163.97
2022-10-28T16:24:58.399Z,101175.03
2022-10-28T16:27:31.348Z,101174.38
2022-10-28T16:30:00.107Z,101186.28
2022-10-28T16:32:31.810Z,101197.13
2022-10-28T16:35:02.439Z,101200.88
2022-10-28T16:37:33.613Z,101195.72
2022-10-28T16:40:02.150Z,101196.88
2022-10-28T16:42:31.881Z,101203.38
2022-10-28T16:45:00.129Z,101201.81
2022-10-28T16:47:29.142Z,101196.66
2022-10-28T16:49:57.957Z,101196.06
2022-10-28T16:52:30.206Z,101196.25
2022-10-28T16:54:59.157Z,101197.41
2022-10-28T16:57:28.184Z,101190.53
2022-10-28T16:59:57.829Z,101188.13
2022-10-28T17:02:29.401Z,101198.22
2022-10-28T17:04:58.443Z,101184.38
2022-10-28T17:07:27.237Z,101195.22
2022-10-28T17:09:56.726Z,101199.03
2022-10-28T17:12:27.272Z,101206.44
2022-10-28T17:14:56.910Z,101204.91
2022-10-28T17:17:25.082Z,101206.00
2022-10-28T17:19:53.614Z,101209.91
2022-10-28T17:22:21.891Z,101216.41
2022-10-28T17:24:50.224Z,101215.03
2022-10-28T17:27:19.219Z,101211.78
2022-10-28T17:29:47.525Z,101215.72
2022-10-28T17:32:17.500Z,101210.75
2022-10-28T17:34:46.047Z,101215.63
2022-10-28T17:37:14.543Z,101225.88
2022-10-28T17:39:43.232Z,101220.00
2022-10-28T17:42:11.724Z,101218.63
2022-10-28T17:44:40.307Z,101229.53
2022-10-28T17:47:08.461Z,101225.31
2022-10-28T17:49:38.101Z,101229.09
2022-10-28T17:52:06.368Z,101228.47
2022-10-28T17:54:34.558Z,101240.25
2022-10-28T17:57:02.775Z,101239.50
2022-10-28T17:59:31.283Z,101237.09
2022-10-28T18:01:59.974Z,101247.91
2022-10-28T18:04:28.430Z,101244.44
2022-10-28T18:06:59.194Z,101247.25
2022-10-28T18:09:31.621Z,101243.06
2022-10-28T18:12:02.029Z,101254.72
2022-10-28T18:14:30.724Z,101238.91
2022-10-28T18:16:59.250Z,101240.78
2022-10-28T18:19:27.513Z,101244.47
2022-10-28T18:21:57.145Z,101251.75
2022-10-28T18:24:26.077Z,101253.72
2022-10-28T18:26:57.173Z,101254.81
2022-10-28T18:29:25.831Z,101262.00
2022-10-28T18:31:54.147Z,101259.56
2022-10-28T18:34:23.656Z,101256.16
2022-10-28T18:36:52.402Z,101260.75
2022-10-28T18:39:22.022Z,101260.94
2022-10-28T18:41:51.426Z,101262.69
2022-10-28T18:44:24.261Z,101253.06
2022-10-28T18:46:52.489Z,101265.50
2022-10-28T18:49:20.660Z,101262.94
2022-10-28T18:51:48.907Z,101259.44
2022-10-28T18:54:17.182Z,101266.53
2022-10-28T18:56:48.311Z,101254.19
2022-10-28T18:59:17.406Z,101256.03
2022-10-28T19:01:46.991Z,101264.97
2022-10-28T19:04:15.822Z,101260.66
2022-10-28T19:06:44.046Z,101261.66
2022-10-28T19:09:12.276Z,101264.41
2022-10-28T19:11:40.529Z,101270.75
2022-10-28T19:14:11.401Z,101265.59
2022-10-28T19:16:39.686Z,101269.19
2022-10-28T19:19:07.887Z,101276.38
2022-10-28T19:21:36.220Z,101280.97
2022-10-28T19:24:05.282Z,101274.97
2022-10-28T19:26:34.782Z,101265.34
2022-10-28T19:29:05.124Z,101263.75
2022-10-28T19:31:38.932Z,101268.31
2022-10-28T19:34:07.322Z,101268.63
2022-10-28T19:36:35.778Z,101277.59
2022-10-28T19:39:04.713Z,101279.53
2022-10-28T19:41:33.278Z,101285.00
2022-10-28T19:44:03.145Z,101285.22
2022-10-28T19:46:34.824Z,101291.63
2022-10-28T19:49:05.687Z,101296.22
2022-10-28T19:51:36.275Z,101284.88
2022-10-28T19:54:08.202Z,101292.06
2022-10-28T19:56:37.581Z,101294.94
2022-10-28T19:59:07.532Z,101288.88
2022-10-28T20:01:39.187Z,101292.47
2022-10-28T20:04:09.818Z,101291.63
2022-10-28T20:06:40.266Z,101288.16
2022-10-28T20:09:09.099Z,101301.53
2022-10-28T20:11:39.367Z,101294.47
2022-10-28T20:14:11.451Z,101300.78
2022-10-28T20:16:43.627Z,101290.31
2022-10-28T20:19:12.822Z,101290.44
2022-10-28T20:21:41.711Z,101297.66
2022-10-28T20:24:10.196Z,101297.78
2022-10-28T20:26:39.555Z,101306.66
2022-10-28T20:29:09.579Z,101308.53
2022-10-28T20:31:38.807Z,101312.97
2022-10-28T20:34:09.152Z,101323.66
2022-10-28T20:36:39.982Z,101313.09
2022-10-28T20:39:12.535Z,101323.94
2022-10-28T20:41:42.655Z,101321.44
2022-10-28T20:44:11.304Z,101313.59
2022-10-28T20:46:40.042Z,101311.09
2022-10-28T20:49:10.517Z,101320.09
2022-10-28T20:51:38.707Z,101322.84
2022-10-28T20:54:07.557Z,101326.56
2022-10-28T20:56:38.482Z,101332.88
2022-10-28T20:59:06.897Z,101334.81
2022-10-28T21:01:38.262Z,101335.81
2022-10-28T21:04:11.015Z,101324.47
2022-10-28T21:06:39.986Z,101333.50
2022-10-28T21:09:08.815Z,101335.34
2022-10-28T21:11:37.603Z,101327.53
2022-10-28T21:14:05.810Z,101331.97
2022-10-28T21:16:35.017Z,101335.59
2022-10-28T21:19:03.524Z,101345.28
2022-10-28T21:21:33.092Z,101355.13
2022-10-28T21:24:01.319Z,101351.78
2022-10-28T21:26:29.506Z,101351.06
2022-10-28T21:28:59.022Z,101345.06
2022-10-28T21:31:27.279Z,101345.25
2022-10-28T21:33:55.482Z,101352.44
2022-10-28T21:36:24.014Z,101351.63
2022-10-28T21:38:56.227Z,101347.25
2022-10-28T21:41:25.910Z,101352.59
2022-10-28T21:43:55.048Z,101358.84
2022-10-28T21:46:24.707Z,101358.03
2022-10-28T21:48:54.331Z,101370.56
2022-10-28T21:51:22.850Z,101363.59
2022-10-28T21:53:51.104Z,101357.47
2022-10-28T21:56:21.433Z,101352.25
2022-10-28T21:58:51.424Z,101367.34
2022-10-28T22:01:22.927Z,101369.28
2022-10-28T22:03:52.844Z,101365.88
2022-10-28T22:06:21.067Z,101360.72
2022-10-28T22:08:49.517Z,101360.84
2022-10-28T22:11:21.394Z,101361.84
2022-10-28T22:13:55.883Z,101362.91
2022-10-28T22:16:24.434Z,101356.91
2022-10-28T22:18:52.768Z,101362.41
2022-10-28T22:21:23.100Z,101366.16
2022-10-28T22:23:53.012Z,101365.44
2022-10-28T22:26:25.129Z,101364.69
2022-10-28T22:28:53.924Z,101365.78
2022-10-28T22:31:24.757Z,101362.44
2022-10-28T22:33:53.808Z,101361.72
2022-10-28T22:36:25.325Z,101360.16
2022-10-28T22:38:53.922Z,101360.25
2022-10-28T22:41:25.341Z,101352.44
2022-10-28T22:43:55.801Z,101347.25
2022-10-28T22:46:26.372Z,101343.00
2022-10-28T22:48:55.143Z,101343.13
2022-10-28T22:51:23.918Z,101344.25
2022-10-28T22:53:52.796Z,101337.31
2022-10-28T22:56:25.100Z,101339.06
2022-10-28T22:58:56.308Z,101335.56
2022-10-28T23:01:26.919Z,101332.91
2022-10-28T23:03:56.336Z,101338.97
2022-10-28T23:06:27.096Z,101338.06
2022-10-28T23:08:56.407Z,101343.28
2022-10-28T23:11:25.921Z,101351.19
2022-10-28T23:13:55.637Z,101352.03
2022-10-28T23:16:24.823Z,101342.28
2022-10-28T23:18:53.786Z,101334.22
2022-10-28T23:21:24.555Z,101330.59
2022-10-28T23:23:54.937Z,101338.41
2022-10-28T23:26:25.359Z,101338.22
2022-10-28T23:28:55.848Z,101339.91
2022-10-28T23:31:24.684Z,101340.63
2022-10-28T23:33:54.508Z,101334.38
2022-10-28T23:36:23.004Z,101341.25
2022-10-28T23:38:52.391Z,101344.72
2022-10-28T23:41:21.027Z,101343.78
2022-10-28T23:43:50.693Z,101345.53
2022-10-28T23:46:20.378Z,101344.59
2022-10-28T23:48:48.572Z,101349.91
2022-10-28T23:51:16.755Z,101357.00
2022-10-28T23:53:45.403Z,101360.50
2022-10-28T23:56:13.864Z,101360.50
2022-10-28T23:58:42.327Z,101349.97
